Time;durP1;ratioP1;P1;durP2;ratioP2;P2;SDS_P1;SDS_P2;PMS_P1;PMS_P2;Temp;Humidity;BMP_temperature;BMP_pressure;BME280_temperature;BME280_humidity;BME280_pressure;Samples;Min_cycle;Max_cycle;Signal;HPM_P1;HPM_P2
2022/10/30 00:01:59;;;;;;;33.92;23.22;;;;;;;13.23;81.89;101333.11;1658180;85;21090;-82
2022/10/30 00:04:44;;;;;;;34.35;22.55;;;;;;;13.24;81.92;101333.97;1640329;85;21053;-82
2022/10/30 00:07:29;;;;;;;35.55;23.62;;;;;;;13.23;81.91;101320.56;1648717;84;21461;-82
2022/10/30 00:10:16;;;;;;;39.95;23.92;;;;;;;13.21;81.89;101316.69;1643866;85;21101;-82
2022/10/30 00:13:01;;;;;;;39.03;24.45;;;;;;;13.22;81.95;101320.14;1639240;85;21064;-82
2022/10/30 00:15:50;;;;;;;36.55;25.00;;;;;;;13.21;81.96;101314.53;1656875;85;21118;-82
2022/10/30 00:18:37;;;;;;;35.28;23.87;;;;;;;13.20;82.00;101308.48;1657635;85;21131;-82
2022/10/30 00:21:22;;;;;;;;;;;;;;;13.19;81.98;101314.56;1653829;85;21057;-82
2022/10/30 00:24:07;;;;;;;33.08;22.32;;;;;;;13.18;82.06;101314.58;1649355;84;20532;-82
2022/10/30 00:26:52;;;;;;;40.53;25.97;;;;;;;13.15;81.97;101310.70;1652250;85;21488;-82
2022/10/30 00:29:37;;;;;;;38.13;24.98;;;;;;;13.11;81.98;101305.14;1638832;84;21692;-83
2022/10/30 00:32:23;;;;;;;42.38;25.23;;;;;;;13.08;82.07;101296.95;1649085;85;21092;-83
2022/10/30 00:35:10;;;;;;;39.10;25.30;;;;;;;13.07;82.05;101293.08;1658191;85;21049;-83
2022/10/30 00:37:55;;;;;;;34.73;24.02;;;;;;;13.06;82.08;101300.45;1657843;85;21028;-83
2022/10/30 00:40:40;;;;;;;39.13;25.15;;;;;;;13.05;82.07;101294.84;1662389;84;21065;-83
2022/10/30 00:43:36;;;;;;;38.63;23.87;;;;;;;13.02;82.07;101293.59;1665874;84;21119;-82
2022/10/30 00:46:25;;;;;;;38.85;24.15;;;;;;;13.00;82.12;101293.61;1654113;85;21013;-82
2022/10/30 00:49:16;;;;;;;38.67;24.95;;;;;;;12.98;82.12;101290.22;1660661;85;21666;-82
2022/10/30 00:52:05;;;;;;;43.40;25.15;;;;;;;12.96;82.15;101291.97;1652729;84;21515;-82
2022/10/30 00:54:52;;;;;;;32.35;21.20;;;;;;;12.94;82.13;101279.45;1662501;84;21121;-82
2022/10/30 00:57:38;;;;;;;;;;;;;;;12.92;82.16;101279.92;1662506;85;21092;-82
2022/10/30 01:00:27;;;;;;;27.13;19.45;;;;;;;12.90;82.27;101288.17;1661281;84;20192;-82
2022/10/30 01:03:12;;;;;;;30.40;21.27;;;;;;;12.88;82.19;101283.44;1666212;83;21072;-82
2022/10/30 01:06:02;;;;;;;29.83;20.33;;;;;;;12.85;82.20;101273.96;1651094;85;21143;-82
2022/10/30 01:08:47;;;;;;;37.48;21.27;;;;;;;12.85;82.24;101270.07;1658746;85;21029;-82
2022/10/30 01:11:32;;;;;;;32.95;19.50;;;;;;;12.84;82.23;101266.20;1666736;84;21108;-82
2022/10/30 01:14:20;;;;;;;35.40;20.68;;;;;;;12.83;82.22;101268.38;1654402;84;22225;-82
2022/10/30 01:17:36;;;;;;;33.98;20.90;;;;;;;12.81;82.23;101263.65;1654342;85;21053;-82
2022/10/30 01:20:32;;;;;;;28.42;19.00;;;;;;;12.80;82.28;101264.09;1657492;85;21122;-83
2022/10/30 01:23:29;;;;;;;31.80;19.57;;;;;;;12.79;82.29;101256.32;1662189;85;21099;-83
2022/10/30 01:26:38;;;;;;;34.58;21.12;;;;;;;12.77;82.28;101253.75;1666003;84;21134;-83
2022/10/30 01:29:34;;;;;;;33.80;22.00;;;;;;;12.74;82.26;101248.61;1650346;85;21084;-82
2022/10/30 01:32:39;;;;;;;;;;;;;;;12.72;82.34;101258.59;1624831;85;21418;-82
2022/10/30 01:35:35;;;;;;;30.57;20.65;;;;;;;12.72;82.46;101263.78;1656936;85;20230;-82
2022/10/30 01:38:32;;;;;;;33.42;21.70;;;;;;;12.70;82.38;101257.75;1608605;87;21131;-82
2022/10/30 01:41:16;;;;;;;39.83;22.73;;;;;;;12.68;82.41;101252.59;1651590;84;21140;-82
2022/10/30 01:44:07;;;;;;;35.55;22.27;;;;;;;12.69;82.45;101252.14;1651991;85;21057;-82
2022/10/30 01:47:21;;;;;;;35.28;23.83;;;;;;;12.69;82.47;101266.42;1650038;84;21095;-82
2022/10/30 01:50:41;;;;;;;32.28;22.32;;;;;;;12.68;82.49;101270.75;1645732;84;21057;-83
2022/10/30 01:53:46;;;;;;;29.92;23.47;;;;;;;12.70;82.46;101275.92;1666670;85;21980;-83
2022/10/30 01:56:45;;;;;;;38.05;25.95;;;;;;;12.69;82.44;101281.55;1655358;84;21076;-82
2022/10/30 01:59:47;;;;;;;48.65;27.73;;;;;;;12.70;82.48;101273.33;1661986;85;21126;-82
2022/10/30 02:02:32;;;;;;;40.83;25.88;;;;;;;12.70;82.50;101275.92;1661665;84;21136;-82
2022/10/30 02:05:43;;;;;;;42.58;28.50;;;;;;;12.69;82.49;101280.25;1655120;85;21084;-82
2022/10/30 02:08:28;;;;;;;39.20;25.00;;;;;;;12.69;82.50;101276.80;1648881;85;21104;-82
2022/10/30 02:11:15;;;;;;;35.35;24.40;;;;;;;12.69;82.49;101272.91;1662259;85;21088;-82
2022/10/30 02:14:04;;;;;;;32.23;23.00;;;;;;;12.67;82.53;101272.92;1645059;85;21112;-82
2022/10/30 02:16:52;;;;;;;31.52;21.52;;;;;;;12.66;82.56;101272.51;1655029;84;21068;-82
2022/10/30 02:19:38;;;;;;;34.60;23.25;;;;;;;12.66;82.50;101268.61;1647037;85;21068;-82
2022/10/30 02:22:23;;;;;;;35.30;22.67;;;;;;;12.63;82.48;101273.84;1648646;85;21150;-82
2022/10/30 02:25:09;;;;;;;33.97;22.80;;;;;;;12.62;82.56;101270.83;1663758;84;21111;-82
2022/10/30 02:27:54;;;;;;;39.80;22.13;;;;;;;12.58;82.54;101263.53;1655770;84;21053;-82
2022/10/30 02:30:42;;;;;;;38.80;26.02;;;;;;;12.56;82.50;101270.91;1652774;84;21084;-82
2022/10/30 02:33:27;;;;;;;31.23;22.67;;;;;;;12.51;82.53;101270.12;1651040;85;21100;-82
2022/10/30 02:36:14;;;;;;;30.50;21.23;;;;;;;12.47;82.59;101265.45;1645580;85;21542;-83
2022/10/30 02:38:59;;;;;;;30.65;20.15;;;;;;;12.45;82.64;101262.02;1668753;84;21052;-83
2022/10/30 02:41:44;;;;;;;34.08;20.97;;;;;;;12.44;82.62;101267.22;1683455;84;22165;-82
2022/10/30 02:44:29;;;;;;;33.85;23.05;;;;;;;12.42;82.64;101264.65;1661625;84;21682;-82
2022/10/30 02:47:14;;;;;;;36.30;23.65;;;;;;;12.41;82.65;101263.37;1669483;84;21655;-82
2022/10/30 02:49:59;;;;;;;29.75;21.93;;;;;;;12.40;82.64;101274.63;1657113;84;21056;-82
2022/10/30 02:52:44;;;;;;;41.00;22.02;;;;;;;12.39;82.67;101279.39;1662075;84;21109;-82
2022/10/30 02:55:29;;;;;;;29.92;20.32;;;;;;;12.38;82.69;101273.78;1675895;84;21136;-82
2022/10/30 02:58:15;;;;;;;27.00;20.43;;;;;;;12.36;82.62;101267.75;1547038;84;10000985;-82
2022/10/30 03:01:16;;;;;;;30.35;21.00;;;;;;;12.32;82.64;101268.23;1658646;84;21066;-82
2022/10/30 03:04:01;;;;;;;32.42;20.40;;;;;;;12.32;82.71;101270.83;1663215;84;21155;-82
2022/10/30 03:06:46;;;;;;;35.58;22.60;;;;;;;12.30;82.68;101266.09;1657274;84;21116;-82
2022/10/30 03:09:31;;;;;;;31.77;21.85;;;;;;;12.25;82.67;101268.75;1649269;84;21136;-82
2022/10/30 03:12:16;;;;;;;33.20;23.10;;;;;;;12.24;82.73;101272.66;1640428;85;21411;-82
2022/10/30 03:15:01;;;;;;;34.27;22.22;;;;;;;12.20;82.71;101270.53;1658210;84;21091;-82
2022/10/30 03:17:48;;;;;;;28.67;20.15;;;;;;;12.19;82.80;101273.15;1649990;84;21056;-82
2022/10/30 03:20:33;;;;;;;26.27;20.08;;;;;;;12.17;82.74;101264.09;1674287;84;20994;-82
2022/10/30 03:23:18;;;;;;;29.32;17.92;;;;;;;12.16;82.74;101259.78;1651153;84;21107;-82
2022/10/30 03:26:04;;;;;;;27.07;18.15;;;;;;;12.15;82.82;101259.80;1664158;84;21475;-82
2022/10/30 03:28:49;;;;;;;25.90;17.92;;;;;;;12.15;82.79;101263.69;1636789;85;21545;-82
2022/10/30 03:31:34;;;;;;;22.17;16.60;;;;;;;12.14;82.79;101264.56;1650977;85;21050;-82
2022/10/30 03:34:20;;;;;;;21.73;17.17;;;;;;;12.14;82.84;101261.97;1641055;84;21327;-82
2022/10/30 03:37:05;;;;;;;21.93;16.15;;;;;;;12.13;82.83;101260.26;1633984;85;21152;-82
2022/10/30 03:39:50;;;;;;;29.65;20.02;;;;;;;12.14;82.85;101264.13;1643269;85;21033;-82
2022/10/30 03:42:39;;;;;;;26.12;18.90;;;;;;;12.15;82.80;101264.98;1652881;85;21092;-82
2022/10/30 03:45:23;;;;;;;26.33;19.10;;;;;;;12.12;82.75;101255.95;1596767;87;21084;-82
2022/10/30 03:48:09;;;;;;;29.23;19.87;;;;;;;12.09;82.88;101254.25;1611103;87;21153;-82
2022/10/30 03:50:57;;;;;;;29.85;19.82;;;;;;;12.11;82.91;101251.64;1661073;84;22201;-82
2022/10/30 03:53:41;;;;;;;25.75;18.80;;;;;;;12.13;82.94;101257.23;1649626;85;21523;-82
2022/10/30 03:56:28;;;;;;;31.12;21.37;;;;;;;12.15;82.95;101262.39;1652842;85;21066;-82
2022/10/30 03:59:13;;;;;;;24.47;19.57;;;;;;;12.15;82.91;101267.14;1653210;85;21542;-82
2022/10/30 04:01:58;;;;;;;28.05;18.92;;;;;;;12.15;82.94;101266.28;1664337;83;21092;-82
2022/10/30 04:04:43;;;;;;;22.80;17.67;;;;;;;12.15;82.91;101257.20;1658982;84;21092;-82
2022/10/30 04:07:28;;;;;;;30.00;17.82;;;;;;;12.12;82.91;101250.33;1655447;85;21060;-82
2022/10/30 04:10:14;;;;;;;21.57;16.15;;;;;;;12.13;82.96;101252.05;1648303;84;21097;-82
2022/10/30 04:13:04;;;;;;;22.50;16.05;;;;;;;12.14;83.00;101246.42;1637091;84;21479;-82
2022/10/30 04:15:50;;;;;;;20.25;15.90;;;;;;;12.14;83.00;101251.16;1650124;85;21120;-82
2022/10/30 04:18:35;;;;;;;21.68;16.37;;;;;;;12.15;82.96;101249.44;1652410;85;21016;-82
2022/10/30 04:21:20;;;;;;;23.20;16.50;;;;;;;12.14;83.00;101256.35;1650097;84;21078;-82
2022/10/30 04:24:06;;;;;;;24.27;16.30;;;;;;;12.15;83.01;101255.91;1659803;84;21055;-82
2022/10/30 04:26:51;;;;;;;24.12;16.05;;;;;;;12.15;83.02;101250.73;1652832;85;21108;-82
2022/10/30 04:29:36;;;;;;;25.57;16.07;;;;;;;12.15;83.02;101250.29;1657264;85;21095;-82
2022/10/30 04:32:21;;;;;;;20.77;15.40;;;;;;;12.14;83.02;101255.49;1656865;84;21089;-82
2022/10/30 04:35:08;;;;;;;21.77;15.98;;;;;;;12.13;83.03;101252.05;1655256;84;21088;-83
2022/10/30 04:37:59;;;;;;;19.15;15.70;;;;;;;12.13;83.04;101255.93;1660385;84;21822;-83
2022/10/30 04:40:44;;;;;;;23.55;15.78;;;;;;;12.13;83.08;101255.93;1655943;85;21112;-82
2022/10/30 04:43:29;;;;;;;21.37;15.18;;;;;;;12.13;83.09;101260.26;1636385;85;21140;-82
2022/10/30 04:46:16;;;;;;;27.35;16.52;;;;;;;12.14;83.10;101255.49;1657346;85;21008;-82
2022/10/30 04:49:00;;;;;;;24.12;16.12;;;;;;;12.14;83.16;101260.68;1642583;85;21103;-82
2022/10/30 04:51:46;;;;;;;24.70;16.57;;;;;;;12.14;83.12;101261.97;1651932;84;21504;-82
2022/10/30 04:54:31;;;;;;;22.48;18.20;;;;;;;12.14;83.13;101263.27;1656257;85;21084;-82
2022/10/30 04:57:16;;;;;;;27.95;19.55;;;;;;;12.14;83.14;101268.02;1653141;84;21472;-82
2022/10/30 05:00:07;;;;;;;42.27;28.50;;;;;;;12.14;83.13;101261.53;1657754;85;21037;-82
2022/10/30 05:02:52;;;;;;;27.87;18.17;;;;;;;12.14;83.14;101261.53;1655129;84;21090;-82
2022/10/30 05:05:37;;;;;;;23.85;17.12;;;;;;;12.13;83.12;101246.86;1656508;85;21116;-82
2022/10/30 05:08:22;;;;;;;22.30;16.30;;;;;;;12.11;83.05;101245.16;1669273;85;21055;-82
2022/10/30 05:11:07;;;;;;;28.32;19.23;;;;;;;12.07;83.08;101241.75;1656698;85;21102;-82
2022/10/30 05:13:52;;;;;;;22.75;18.10;;;;;;;12.06;83.14;101248.24;1653346;85;21109;-82
2022/10/30 05:16:37;;;;;;;23.12;17.67;;;;;;;12.05;83.11;101246.53;1651320;85;21451;-82
2022/10/30 05:19:22;;;;;;;19.48;15.88;;;;;;;12.03;83.17;101243.95;1647569;84;21636;-82
2022/10/30 05:22:09;;;;;;;18.32;15.03;;;;;;;12.02;83.18;101243.53;1640591;84;21556;-82
2022/10/30 05:24:53;;;;;;;21.37;16.35;;;;;;;12.00;83.16;101240.10;1654179;85;21580;-82
2022/10/30 05:27:39;;;;;;;25.20;15.98;;;;;;;11.98;83.13;101237.11;1665608;84;21087;-82
2022/10/30 05:30:26;;;;;;;19.02;15.68;;;;;;;11.97;83.19;101241.88;1658060;85;21554;-82
2022/10/30 05:33:14;;;;;;;22.67;15.40;;;;;;;11.97;83.21;101243.17;1669210;84;21825;-82
2022/10/30 05:35:59;;;;;;;22.48;16.17;;;;;;;11.96;83.21;101244.08;1665089;85;21718;-82
2022/10/30 05:38:45;;;;;;;34.65;18.17;;;;;;;11.95;83.22;101235.88;1652249;84;21104;-82
2022/10/30 05:41:30;;;;;;;32.17;17.07;;;;;;;11.96;83.26;101246.67;1663477;84;21057;-82
2022/10/30 05:44:15;;;;;;;28.90;16.25;;;;;;;11.95;83.24;101259.20;1660526;84;21117;-82
2022/10/30 05:47:00;;;;;;;25.75;16.17;;;;;;;11.93;83.27;101269.15;1668134;84;21532;-82
2022/10/30 05:49:46;;;;;;;21.60;15.15;;;;;;;11.93;83.26;101262.67;1679672;84;21072;-82
2022/10/30 05:52:31;;;;;;;35.85;23.10;;;;;;;11.91;83.28;101260.97;1662497;84;21453;-82
2022/10/30 05:55:16;;;;;;;25.48;16.35;;;;;;;11.91;83.33;101265.72;1649482;84;21575;-82
2022/10/30 05:58:05;;;;;;;22.85;15.83;;;;;;;11.92;83.32;101263.98;1658182;84;21064;-82
2022/10/30 06:00:50;;;;;;;24.27;15.95;;;;;;;11.92;83.33;101264.84;1664732;84;21082;-82
2022/10/30 06:03:35;;;;;;;21.95;16.10;;;;;;;11.93;83.31;101268.30;1651822;84;21107;-82
2022/10/30 06:06:20;;;;;;;22.73;15.10;;;;;;;11.93;83.34;101271.74;1663332;84;21110;-82
2022/10/30 06:09:05;;;;;;;20.43;15.08;;;;;;;11.95;83.36;101267.84;1662045;84;21098;-82
2022/10/30 06:11:50;;;;;;;24.05;15.32;;;;;;;11.96;83.31;101270.82;1660276;84;21143;-82
2022/10/30 06:14:35;;;;;;;22.15;14.65;;;;;;;11.96;83.37;101273.87;1664698;84;21108;-82
2022/10/30 06:17:21;;;;;;;19.00;14.45;;;;;;;11.96;83.37;101278.59;1668273;84;21085;-82
2022/10/30 06:20:06;;;;;;;21.55;13.98;;;;;;;11.96;83.37;101285.55;1653859;84;21367;-82
2022/10/30 06:23:04;;;;;;;20.83;14.57;;;;;;;11.98;83.42;101288.95;1665750;84;21048;-82
2022/10/30 06:25:49;;;;;;;21.27;13.80;;;;;;;11.99;83.43;101284.18;1656190;84;21108;-82
2022/10/30 06:28:34;;;;;;;22.93;12.93;;;;;;;12.00;83.46;101277.69;1662759;84;21108;-82
2022/10/30 06:31:19;;;;;;;29.98;15.78;;;;;;;12.01;83.45;101271.63;1655233;84;21119;-82
2022/10/30 06:34:04;;;;;;;26.75;17.42;;;;;;;12.02;83.42;101277.23;1661479;84;21063;-82
2022/10/30 06:36:49;;;;;;;21.90;15.80;;;;;;;12.04;83.39;101278.07;1668696;84;21483;-82
2022/10/30 06:39:35;;;;;;;25.75;16.42;;;;;;;12.07;83.46;101275.88;1659537;83;21104;-82
2022/10/30 06:42:20;;;;;;;26.42;17.52;;;;;;;12.11;83.49;101274.53;1658307;84;21144;-82
2022/10/30 06:45:06;;;;;;;27.00;16.95;;;;;;;12.17;83.50;101272.31;1655648;84;21064;-82
2022/10/30 06:47:51;;;;;;;22.47;15.33;;;;;;;12.20;83.45;101284.80;1667504;84;20992;-83
2022/10/30 06:50:36;;;;;;;20.92;14.55;;;;;;;12.25;83.54;101286.04;1654617;84;21114;-82
2022/10/30 06:53:21;;;;;;;17.35;13.60;;;;;;;12.31;83.49;101296.78;1647030;85;21560;-82
2022/10/30 06:56:07;;;;;;;17.40;12.03;;;;;;;12.36;83.55;101295.84;1643831;83;21132;-82
2022/10/30 06:58:52;;;;;;;19.32;14.25;;;;;;;12.41;83.55;101295.35;1646508;85;21005;-82
2022/10/30 07:01:38;;;;;;;23.43;15.33;;;;;;;12.48;83.52;101301.28;1648309;85;21529;-82
2022/10/30 07:04:23;;;;;;;22.05;12.33;;;;;;;12.53;83.55;101303.38;1642737;85;21053;-82
2022/10/30 07:07:08;;;;;;;21.00;12.50;;;;;;;12.58;83.58;101297.70;1644270;84;21089;-82
2022/10/30 07:09:53;;;;;;;15.90;12.05;;;;;;;12.69;83.71;101292.36;1648762;84;21109;-82
2022/10/30 07:12:38;;;;;;;18.23;12.70;;;;;;;12.82;83.75;101291.31;1639123;84;21139;-82
2022/10/30 07:15:25;;;;;;;18.27;13.68;;;;;;;12.96;83.72;101293.27;1642764;85;21139;-82
2022/10/30 07:18:10;;;;;;;19.35;13.70;;;;;;;13.11;83.81;101299.94;1649429;85;21568;-82
2022/10/30 07:20:55;;;;;;;19.55;12.95;;;;;;;13.28;83.87;101299.71;1639744;84;21337;-82
2022/10/30 07:23:40;;;;;;;20.92;13.88;;;;;;;13.44;83.89;101302.03;1647536;85;21088;-82
2022/10/30 07:26:25;;;;;;;20.12;14.03;;;;;;;13.62;83.93;101301.28;1651225;84;21623;-82
2022/10/30 07:29:10;;;;;;;21.95;15.20;;;;;;;13.80;83.98;101303.11;1647018;85;22264;-82
2022/10/30 07:31:55;;;;;;;21.52;15.35;;;;;;;14.01;83.99;101307.50;1646631;85;21045;-82
2022/10/30 07:34:41;;;;;;;26.12;15.58;;;;;;;14.13;83.94;101308.53;1642696;85;21134;-82
2022/10/30 07:37:26;;;;;;;26.62;15.00;;;;;;;14.20;83.93;101310.12;1650737;84;21097;-82
2022/10/30 07:40:11;;;;;;;21.73;16.20;;;;;;;14.26;83.95;101311.31;1635256;84;21065;-82
2022/10/30 07:42:58;;;;;;;20.57;15.60;;;;;;;14.32;83.94;101307.73;1645082;85;21558;-83
2022/10/30 07:45:45;;;;;;;30.08;15.68;;;;;;;14.36;83.98;101303.73;1649460;84;21097;-83
2022/10/30 07:48:30;;;;;;;22.55;14.75;;;;;;;14.38;83.98;101301.95;1649035;84;21057;-83
2022/10/30 07:51:15;;;;;;;20.75;15.38;;;;;;;14.41;83.99;101299.73;1651221;84;21061;-83
2022/10/30 07:54:00;;;;;;;26.50;16.93;;;;;;;14.44;84.06;101296.66;1652599;84;21060;-83
2022/10/30 07:56:45;;;;;;;22.60;16.17;;;;;;;14.48;84.08;101299.61;1658243;85;21112;-82
2022/10/30 07:59:31;;;;;;;26.77;17.45;;;;;;;14.54;84.09;101294.27;1651208;84;21116;-82
2022/10/30 08:02:16;;;;;;;25.80;17.55;;;;;;;14.58;84.07;101286.78;1652408;85;21068;-82
2022/10/30 08:05:02;;;;;;;27.85;18.30;;;;;;;14.63;84.09;101279.31;1654984;84;21105;-82
2022/10/30 08:07:47;;;;;;;27.60;17.82;;;;;;;14.66;84.12;101277.50;1651782;83;21076;-82
2022/10/30 08:10:32;;;;;;;22.95;17.95;;;;;;;14.71;84.11;101283.91;1666217;83;21057;-82
2022/10/30 08:13:17;;;;;;;26.48;17.35;;;;;;;14.77;84.14;101282.03;1652476;83;21663;-82
2022/10/30 08:16:02;;;;;;;27.67;18.20;;;;;;;14.86;84.12;101283.56;1650150;85;21113;-82
2022/10/30 08:18:47;;;;;;;24.20;17.92;;;;;;;14.96;84.16;101281.61;1642307;85;21120;-82
2022/10/30 08:21:33;;;;;;;24.15;19.25;;;;;;;15.08;84.23;101290.41;1628357;87;21010;-82
2022/10/30 08:24:17;;;;;;;25.02;18.57;;;;;;;15.19;84.20;101293.16;1627010;86;21044;-82
2022/10/30 08:27:04;;;;;;;29.07;19.50;;;;;;;15.31;84.24;101296.38;1666849;84;21093;-82
2022/10/30 08:29:51;;;;;;;29.77;20.12;;;;;;;15.41;84.24;101293.50;1657111;85;21113;-82
2022/10/30 08:32:35;;;;;;;;;;;;;;;15.54;84.26;101295.35;1650597;84;21056;-82
2022/10/30 08:35:20;;;;;;;26.75;17.87;;;;;;;15.63;84.19;101290.35;1655266;85;20710;-82
2022/10/30 08:38:05;;;;;;;30.27;21.50;;;;;;;15.74;84.28;101286.56;1640569;84;21693;-82
2022/10/30 08:40:51;;;;;;;32.42;23.15;;;;;;;15.86;84.27;101280.17;1665206;84;21099;-82
2022/10/30 08:43:37;;;;;;;36.17;23.85;;;;;;;15.95;84.28;101280.38;1659789;85;21073;-82
2022/10/30 08:46:22;;;;;;;33.30;22.85;;;;;;;16.02;84.21;101281.46;1649676;85;21061;-82
2022/10/30 08:49:08;;;;;;;38.13;23.70;;;;;;;16.09;84.26;101286.06;1651571;85;21136;-82
2022/10/30 08:51:52;;;;;;;31.37;24.23;;;;;;;16.13;84.22;101290.27;1632558;84;21083;-82
2022/10/30 08:54:37;;;;;;;36.40;26.60;;;;;;;16.14;84.22;101284.15;1647907;84;21089;-83
2022/10/30 08:57:23;;;;;;;36.65;26.48;;;;;;;16.14;84.21;101284.15;1584485;84;5001540;-83
2022/10/30 09:00:09;;;;;;;39.50;25.97;;;;;;;16.11;84.18;101289.48;1647750;85;21120;-83
2022/10/30 09:02:54;;;;;;;;;;;;;;;16.09;84.23;101294.75;1655240;85;21105;-83
2022/10/30 09:05:39;;;;;;;34.25;24.85;;;;;;;16.11;84.22;101298.62;1652853;85;20275;-82
2022/10/30 09:08:24;;;;;;;42.43;26.80;;;;;;;16.14;84.27;101289.37;1638731;85;21052;-82
2022/10/30 09:11:09;;;;;;;41.10;27.77;;;;;;;16.19;84.32;101287.48;1653818;85;21105;-82
2022/10/30 09:13:54;;;;;;;42.70;27.62;;;;;;;16.25;84.30;101287.76;1643074;85;21357;-82
2022/10/30 09:16:39;;;;;;;39.58;26.80;;;;;;;16.27;84.25;101289.88;1642058;85;21095;-82
2022/10/30 09:19:24;;;;;;;33.45;25.85;;;;;;;16.31;84.23;101291.50;1653910;85;21550;-82
2022/10/30 09:22:09;;;;;;;36.23;25.75;;;;;;;16.32;84.21;101290.15;1636745;85;21033;-82
2022/10/30 09:24:54;;;;;;;34.70;25.82;;;;;;;16.31;84.19;101286.28;1645825;85;21081;-82
2022/10/30 09:27:40;;;;;;;40.73;26.73;;;;;;;16.30;84.22;101285.42;1640106;85;21139;-82
2022/10/30 09:30:25;;;;;;;40.28;26.65;;;;;;;16.30;84.19;101289.34;1649093;85;21112;-82
2022/10/30 09:33:10;;;;;;;36.65;27.40;;;;;;;16.32;84.21;101286.69;1638406;85;21304;-82
2022/10/30 09:35:56;;;;;;;39.88;26.07;;;;;;;16.33;84.25;101280.12;1331268;85;5002528;-82
2022/10/30 09:38:42;;;;;;;37.40;26.37;;;;;;;16.38;84.26;101285.20;1627549;85;21100;-82
2022/10/30 09:41:55;;;;;;;36.70;25.80;;;;;;;16.38;84.20;101280.84;1650895;84;21124;-82
2022/10/30 09:45:22;;;;;;;40.73;25.88;;;;;;;16.43;84.23;101278.95;1658345;84;21593;-82
2022/10/30 09:48:44;;;;;;;35.58;24.98;;;;;;;16.53;84.30;101274.31;1647187;85;21077;-82
2022/10/30 09:52:09;;;;;;;35.48;24.40;;;;;;;16.62;84.24;101275.34;1648457;85;21140;-82
2022/10/30 09:55:34;;;;;;;35.10;25.50;;;;;;;16.66;84.18;101275.66;1642648;85;21156;-82
2022/10/30 09:58:36;;;;;;;36.60;25.80;;;;;;;16.72;84.19;101272.86;1645464;85;21732;-82
2022/10/30 10:01:45;;;;;;;40.88;26.70;;;;;;;16.76;84.15;101267.09;1643114;85;21059;-82
2022/10/30 10:04:53;;;;;;;41.40;27.40;;;;;;;16.82;84.25;101259.06;1644599;85;21085;-82
2022/10/30 10:07:49;;;;;;;43.80;27.65;;;;;;;16.86;84.17;101262.83;1643017;84;21005;-82
2022/10/30 10:10:51;;;;;;;44.85;28.65;;;;;;;16.91;84.19;101257.46;1641068;85;21535;-82
2022/10/30 10:14:07;;;;;;;50.80;28.35;;;;;;;16.92;84.13;101255.25;1645694;85;21108;-82
2022/10/30 10:16:53;;;;;;;;;;;;;;;16.96;84.15;101247.72;1641626;85;21155;-82
2022/10/30 10:19:55;;;;;;;49.20;27.87;;;;;;;16.99;84.00;101242.84;1638505;85;20187;-82
2022/10/30 10:22:50;;;;;;;44.13;28.02;;;;;;;16.99;84.04;101242.40;1632427;85;21076;-82
2022/10/30 10:25:38;;;;;;;39.08;27.37;;;;;;;17.01;84.05;101237.13;1638733;85;21578;-82
2022/10/30 10:28:50;;;;;;;41.85;27.37;;;;;;;17.04;84.09;101230.49;1641849;84;21127;-82
2022/10/30 10:31:46;;;;;;;42.55;27.10;;;;;;;17.08;84.13;101221.65;1646732;84;21073;-82
2022/10/30 10:35:11;;;;;;;44.60;25.50;;;;;;;17.13;84.08;101223.20;1639885;85;21073;-82
2022/10/30 10:38:20;;;;;;;32.33;22.67;;;;;;;17.15;84.06;101216.17;1639473;85;21029;-82
2022/10/30 10:41:32;;;;;;;46.58;26.45;;;;;;;17.20;84.07;101214.22;1642599;85;21053;-82
2022/10/30 10:44:49;;;;;;;36.00;24.85;;;;;;;17.27;84.06;101216.63;1633323;85;21335;-82
2022/10/30 10:48:33;;;;;;;37.10;25.30;;;;;;;17.25;83.90;101216.68;1605062;86;21482;-82
2022/10/30 10:51:35;;;;;;;36.58;23.73;;;;;;;17.23;83.97;101210.65;1632410;86;21077;-82
2022/10/30 10:54:46;;;;;;;36.98;23.75;;;;;;;17.28;84.05;101214.41;1633449;85;21029;-82
2022/10/30 10:57:41;;;;;;;34.20;22.55;;;;;;;17.36;84.04;101216.31;1638581;85;21562;-82
2022/10/30 11:00:28;;;;;;;32.35;21.50;;;;;;;17.42;84.00;101211.73;1636131;85;21077;-82
2022/10/30 11:03:21;;;;;;;33.23;21.23;;;;;;;17.46;83.94;101204.19;1631330;85;21121;-82
2022/10/30 11:06:23;;;;;;;32.98;22.25;;;;;;;17.51;83.95;101202.26;1635394;86;21049;-82
2022/10/30 11:09:18;;;;;;;33.83;20.55;;;;;;;17.57;83.93;101206.42;1635936;86;21168;-82
2022/10/30 11:12:04;;;;;;;34.18;21.12;;;;;;;17.62;83.89;101198.41;1639914;86;21097;-82
2022/10/30 11:14:49;;;;;;;30.08;19.00;;;;;;;17.70;83.92;101198.99;1633451;85;21101;-82
2022/10/30 11:17:52;;;;;;;27.85;19.05;;;;;;;17.74;83.84;101194.91;1638761;85;21093;-82
2022/10/30 11:20:59;;;;;;;34.67;19.82;;;;;;;17.80;83.81;101193.37;1635201;86;21122;-82
2022/10/30 11:23:49;;;;;;;30.27;18.85;;;;;;;17.84;83.78;101198.89;1640607;86;21109;-82
2022/10/30 11:26:34;;;;;;;30.45;18.27;;;;;;;17.86;83.77;101198.38;1630194;85;21104;-82
2022/10/30 11:29:23;;;;;;;28.40;18.47;;;;;;;17.90;83.75;101194.34;1632101;85;21092;-82
2022/10/30 11:32:14;;;;;;;23.38;16.90;;;;;;;17.88;83.60;101198.78;1647861;85;21120;-82
2022/10/30 11:35:10;;;;;;;25.65;17.60;;;;;;;17.90;83.65;101201.73;1638097;85;21765;-82
2022/10/30 11:38:18;;;;;;;27.65;19.02;;;;;;;17.91;83.63;101203.45;1629606;86;21061;-82
2022/10/30 11:41:04;;;;;;;35.43;21.52;;;;;;;17.94;83.63;101199.41;1625868;85;21980;-82
2022/10/30 11:43:49;;;;;;;31.70;18.90;;;;;;;17.96;83.59;101200.20;1653282;84;21126;-82
2022/10/30 11:46:36;;;;;;;29.90;20.15;;;;;;;17.98;83.58;101201.45;1651835;84;21665;-82
2022/10/30 11:49:57;;;;;;;26.65;19.55;;;;;;;17.98;83.53;101197.53;1644645;85;22007;-82
2022/10/30 11:52:44;;;;;;;27.35;18.85;;;;;;;17.99;83.55;101196.17;1636360;85;21534;-82
2022/10/30 11:55:39;;;;;;;;;;;;;;;17.99;83.52;101196.17;1644973;85;21124;-82
2022/10/30 11:58:30;;;;;;;26.02;17.82;;;;;;;17.99;83.34;101192.24;1647906;85;20234;-82
2022/10/30 12:01:27;;;;;;;30.57;20.25;;;;;;;17.98;83.45;101186.61;1645863;85;40037;-82
2022/10/30 12:04:23;;;;;;;34.73;19.82;;;;;;;17.97;83.42;101191.45;1654246;84;21029;-82
2022/10/30 12:07:28;;;;;;;34.05;21.23;;;;;;;18.01;83.43;101190.88;1638898;85;21109;-82
2022/10/30 12:10:29;;;;;;;23.38;18.02;;;;;;;18.05;83.43;101193.32;1642060;84;21116;-82
2022/10/30 12:13:20;;;;;;;36.42;19.12;;;;;;;18.07;83.32;101194.12;1657537;84;21411;-82
2022/10/30 12:16:16;;;;;;;28.77;19.92;;;;;;;18.07;83.27;101187.57;1650249;85;21413;-82
2022/10/30 12:19:14;;;;;;;35.43;19.65;;;;;;;18.09;83.27;101189.67;1666885;84;20952;-82
2022/10/30 12:22:00;;;;;;;37.50;20.30;;;;;;;18.09;83.20;101189.67;1640385;85;21411;-82
2022/10/30 12:24:45;;;;;;;30.17;17.95;;;;;;;18.10;83.18;101194.45;1642152;85;21109;-82
2022/10/30 12:27:33;;;;;;;35.55;18.23;;;;;;;18.11;83.21;101190.47;1651683;85;21078;-82
2022/10/30 12:30:20;;;;;;;37.48;19.00;;;;;;;18.16;83.22;101179.83;1649469;84;21461;-82
2022/10/30 12:33:16;;;;;;;;;;;;;;;18.21;83.19;101176.55;1647852;84;21096;-82
2022/10/30 12:36:06;;;;;;;31.40;18.25;;;;;;;18.25;83.03;101176.83;1643829;85;20553;-82
2022/10/30 12:39:05;;;;;;;26.65;18.35;;;;;;;18.32;83.14;101176.13;1638687;85;21057;-82
2022/10/30 12:42:01;;;;;;;23.62;16.80;;;;;;;18.36;83.13;101175.95;1638105;85;21105;-82
2022/10/30 12:45:17;;;;;;;28.75;17.17;;;;;;;18.41;83.09;101167.92;1646398;84;21088;-82
2022/10/30 12:48:13;;;;;;;26.82;17.27;;;;;;;18.42;83.00;101165.70;1644962;85;21001;-82
2022/10/30 12:51:28;;;;;;;29.57;17.05;;;;;;;18.44;82.97;101162.10;1646428;85;21132;-82
2022/10/30 12:54:40;;;;;;;29.25;17.12;;;;;;;18.46;82.98;101165.97;1643823;84;21140;-82
2022/10/30 12:57:37;;;;;;;25.77;16.93;;;;;;;18.46;82.91;101160.27;1627472;86;21112;-82